Time;durP1;ratioP1;P1;durP2;ratioP2;P2;SDS_P1;SDS_P2;PMS_P1;PMS_P2;Temp;Humidity;BMP_temperature;BMP_pressure;BME280_temperature;BME280_humidity;BME280_pressure;Samples;Min_cycle;Max_cycle;Signal;HPM_P1;HPM_P2
2023/04/29 00:01:26;;;;;;;50.57;39.17;;;;;;;8.85;100.00;101297.34;5303515;28;20101;-67
2023/04/29 00:03:58;;;;;;;47.73;37.37;;;;;;;8.80;100.00;101301.69;5304847;28;20032;-68
2023/04/29 00:06:29;;;;;;;50.90;38.57;;;;;;;8.73;100.00;101300.78;5304790;28;20032;-67
2023/04/29 00:09:00;;;;;;;50.63;35.93;;;;;;;8.78;100.00;101308.63;5304259;28;20110;-67
2023/04/29 00:11:33;;;;;;;50.77;37.37;;;;;;;8.72;100.00;101301.66;5303073;28;20036;-68
2023/04/29 00:14:04;;;;;;;47.85;35.97;;;;;;;8.69;100.00;101306.84;5304174;28;20056;-67
2023/04/29 00:16:36;;;;;;;48.67;34.87;;;;;;;8.66;100.00;101312.00;5304634;28;20417;-68
2023/04/29 00:19:07;;;;;;;47.10;35.67;;;;;;;8.69;100.00;101299.91;5304460;28;20101;-67
2023/04/29 00:21:39;;;;;;;47.73;34.70;;;;;;;8.63;100.00;101305.09;5304995;28;20060;-67
2023/04/29 00:24:10;;;;;;;47.70;38.50;;;;;;;8.57;100.00;101305.94;5304463;28;20062;-67
2023/04/29 00:26:41;;;;;;;43.87;35.33;;;;;;;8.60;100.00;101302.50;5304796;28;20031;-68
2023/04/29 00:29:13;;;;;;;49.33;36.10;;;;;;;8.60;100.00;101306.78;5304204;28;20039;-68
2023/04/29 00:31:44;;;;;;;46.93;37.30;;;;;;;8.51;100.00;101311.09;5304089;28;20535;-68
2023/04/29 00:34:16;;;;;;;44.20;35.57;;;;;;;8.57;100.00;101321.53;5304390;28;20051;-68
2023/04/29 00:36:48;;;;;;;46.17;36.97;;;;;;;8.55;100.00;101319.78;5304348;28;20047;-68
2023/04/29 00:39:19;;;;;;;44.07;35.43;;;;;;;8.53;100.00;101321.50;5303971;28;20024;-68
2023/04/29 00:41:51;;;;;;;46.83;37.17;;;;;;;8.51;100.00;101331.88;5304043;28;20028;-67
2023/04/29 00:44:23;;;;;;;38.13;33.00;;;;;;;8.53;100.00;101325.00;5304182;28;20060;-67
2023/04/29 00:46:54;;;;;;;36.13;32.20;;;;;;;8.48;100.00;101329.28;5304287;28;20121;-68
2023/04/29 00:49:26;;;;;;;34.83;30.40;;;;;;;8.46;100.00;101335.34;5302951;28;20081;-68
2023/04/29 00:51:58;;;;;;;33.28;29.30;;;;;;;8.54;100.00;101326.69;5302968;28;20055;-68
2023/04/29 00:54:29;;;;;;;35.60;30.20;;;;;;;8.54;100.00;101325.84;5303957;28;20039;-68
2023/04/29 00:57:02;;;;;;;34.47;30.37;;;;;;;8.48;100.00;101331.00;5304090;28;20391;-68
2023/04/29 00:59:34;;;;;;;31.95;28.55;;;;;;;8.44;100.00;101332.72;5336954;28;20035;-68
2023/04/29 01:02:06;;;;;;;37.23;31.07;;;;;;;8.50;100.00;101339.66;5302791;28;20043;-68
2023/04/29 01:04:38;;;;;;;35.08;29.90;;;;;;;8.47;100.00;101344.84;5303976;28;20040;-67
2023/04/29 01:07:18;;;;;;;31.23;27.57;;;;;;;8.42;100.00;101342.22;5303999;28;20030;-68
2023/04/29 01:10:07;;;;;;;36.92;29.85;;;;;;;8.44;100.00;101337.06;5303585;28;20347;-67
2023/04/29 01:12:45;;;;;;;31.00;27.70;;;;;;;8.34;100.00;101336.09;5307225;28;20048;-68
2023/04/29 01:15:42;;;;;;;33.33;29.83;;;;;;;8.32;100.00;101345.63;5307992;28;20498;-68
2023/04/29 01:18:29;;;;;;;34.65;30.42;;;;;;;8.31;100.00;101349.09;5307907;28;20099;-68
2023/04/29 01:21:00;;;;;;;32.28;28.45;;;;;;;8.26;100.00;101351.66;5307665;28;20020;-68
2023/04/29 01:23:31;;;;;;;35.67;29.60;;;;;;;8.27;100.00;101349.91;5307776;28;20348;-68
2023/04/29 01:26:04;;;;;;;31.33;28.03;;;;;;;8.34;100.00;101349.97;5307749;28;20039;-68
2023/04/29 01:28:38;;;;;;;;;;;;;;;8.38;100.00;101353.44;5307832;28;20119;-68
2023/04/29 01:31:19;;;;;;;36.67;31.23;;;;;;;8.28;100.00;101362.06;5307683;28;19908;-68
2023/04/29 01:34:16;;;;;;;36.13;29.83;;;;;;;8.26;100.00;101364.66;5307340;28;20079;-68
2023/04/29 01:37:09;;;;;;;38.78;31.73;;;;;;;8.32;100.00;101362.09;5306462;28;20028;-68
2023/04/29 01:40:17;;;;;;;45.05;34.33;;;;;;;8.30;100.00;101366.38;5307033;28;20119;-68
2023/04/29 01:43:00;;;;;;;43.78;35.45;;;;;;;8.21;100.00;101371.50;5241918;28;20029;-68
2023/04/29 01:45:33;;;;;;;44.58;36.25;;;;;;;8.20;100.00;101372.41;5300343;28;20476;-68
2023/04/29 01:48:05;;;;;;;44.55;36.88;;;;;;;8.14;100.00;101369.75;5307320;28;20146;-68
2023/04/29 01:50:36;;;;;;;42.90;35.20;;;;;;;8.16;100.00;101368.03;5307178;28;20423;-66
2023/04/29 01:53:08;;;;;;;47.90;35.40;;;;;;;8.22;100.00;101366.31;5307090;28;20032;-68
2023/04/29 01:55:39;;;;;;;47.80;37.50;;;;;;;8.15;100.00;101369.75;5307071;28;20032;-65
2023/04/29 01:58:10;;;;;;;48.53;37.07;;;;;;;8.13;100.00;101368.00;5306995;28;20459;-66
2023/04/29 02:00:42;;;;;;;42.40;35.47;;;;;;;8.17;100.00;101373.22;5306999;28;20032;-66
2023/04/29 02:03:13;;;;;;;47.60;39.03;;;;;;;8.16;100.00;101370.63;5306898;28;20117;-66
2023/04/29 02:05:44;;;;;;;46.60;37.60;;;;;;;8.22;100.00;101375.84;5306643;28;20143;-66
2023/04/29 02:08:16;;;;;;;48.30;37.40;;;;;;;8.17;100.00;101377.56;5306478;28;20028;-66
2023/04/29 02:10:55;;;;;;;47.88;38.00;;;;;;;8.19;100.00;101383.63;5305423;28;20024;-67
2023/04/29 02:13:26;;;;;;;48.63;37.42;;;;;;;8.29;100.00;101376.75;5306469;28;20377;-66
2023/04/29 02:16:09;;;;;;;51.77;37.43;;;;;;;8.25;100.00;101386.28;5306722;28;20071;-66
2023/04/29 02:18:41;;;;;;;51.75;38.00;;;;;;;8.34;100.00;101385.44;5306771;28;20080;-66
2023/04/29 02:21:13;;;;;;;48.78;37.55;;;;;;;8.37;100.00;101388.06;5306596;28;20032;-66
2023/04/29 02:23:44;;;;;;;48.90;39.77;;;;;;;8.31;100.00;101395.84;5305714;28;20071;-66
2023/04/29 02:26:15;;;;;;;50.83;38.87;;;;;;;8.32;100.00;101398.47;5306523;28;20370;-66
2023/04/29 02:28:47;;;;;;;50.17;38.90;;;;;;;8.32;100.00;101400.16;5306141;28;20024;-67
2023/04/29 02:31:18;;;;;;;52.93;40.17;;;;;;;8.28;100.00;101399.28;5306285;28;20196;-67
2023/04/29 02:33:50;;;;;;;55.27;40.90;;;;;;;8.24;100.00;101404.44;5306428;28;20463;-67
2023/04/29 02:36:21;;;;;;;52.80;40.50;;;;;;;8.21;100.00;101410.47;5306263;28;20051;-67
2023/04/29 02:38:54;;;;;;;50.00;40.33;;;;;;;8.17;100.00;101407.00;5305573;28;20137;-67
2023/04/29 02:41:26;;;;;;;54.50;41.92;;;;;;;8.17;100.00;101414.78;5306185;28;20032;-67
2023/04/29 02:43:57;;;;;;;61.97;42.87;;;;;;;8.15;100.00;101416.50;5306265;28;20169;-67
2023/04/29 02:46:28;;;;;;;57.77;43.20;;;;;;;8.13;100.00;101423.44;5306404;28;20475;-67
2023/04/29 02:49:00;;;;;;;56.47;43.50;;;;;;;8.08;100.00;101429.44;5305811;28;20028;-67
2023/04/29 02:51:32;;;;;;;60.88;44.25;;;;;;;8.08;100.00;101419.03;5304812;28;20375;-67
2023/04/29 02:54:03;;;;;;;62.57;44.33;;;;;;;8.10;100.00;101435.50;5304701;28;20181;-67
2023/04/29 02:56:34;;;;;;;73.37;46.93;;;;;;;8.07;100.00;101433.75;5305683;28;20028;-67
2023/04/29 02:59:06;;;;;;;70.07;45.80;;;;;;;8.03;100.00;101430.28;5305928;28;20036;-67
2023/04/29 03:01:37;;;;;;;67.00;46.00;;;;;;;8.04;100.00;101432.00;5305544;28;20028;-67
2023/04/29 03:04:09;;;;;;;65.80;47.93;;;;;;;8.02;100.00;101438.91;5305749;28;20028;-67
2023/04/29 03:06:41;;;;;;;68.93;47.07;;;;;;;7.95;100.00;101437.13;5305673;28;20043;-67
2023/04/29 03:09:13;;;;;;;72.33;47.03;;;;;;;7.99;100.00;101436.28;5304944;28;20101;-69
2023/04/29 03:11:45;;;;;;;75.20;48.90;;;;;;;7.94;100.00;101435.38;5305733;28;20109;-67
2023/04/29 03:14:16;;;;;;;68.80;47.17;;;;;;;7.91;100.00;101435.34;5304190;28;20056;-67
2023/04/29 03:16:47;;;;;;;71.20;49.23;;;;;;;7.87;100.00;101437.91;5305544;28;20059;-67
2023/04/29 03:19:19;;;;;;;84.17;47.63;;;;;;;7.90;100.00;101437.94;5305542;28;20024;-67
2023/04/29 03:21:50;;;;;;;72.53;47.17;;;;;;;7.95;100.00;101439.72;5304013;28;20032;-67
2023/04/29 03:24:21;;;;;;;77.17;49.20;;;;;;;7.91;100.00;101437.94;5305325;28;20496;-68
2023/04/29 03:26:53;;;;;;;80.60;47.57;;;;;;;7.89;100.00;101449.16;5305304;28;20164;-67
2023/04/29 03:29:26;;;;;;;76.33;48.87;;;;;;;7.87;100.00;101449.16;5303983;28;20119;-67
2023/04/29 03:31:58;;;;;;;74.88;48.13;;;;;;;7.82;100.00;101454.31;5305013;28;20469;-67
2023/04/29 03:34:29;;;;;;;78.20;48.27;;;;;;;7.83;100.00;101457.78;5304436;28;20135;-67
2023/04/29 03:37:00;;;;;;;79.70;48.00;;;;;;;7.87;100.00;101458.66;5303876;28;20122;-67
2023/04/29 03:39:32;;;;;;;68.13;45.60;;;;;;;7.89;100.00;101462.16;5304720;28;20054;-67
2023/04/29 03:42:03;;;;;;;73.20;47.70;;;;;;;7.89;100.00;101464.75;5304811;28;20028;-68
2023/04/29 03:44:35;;;;;;;71.23;45.57;;;;;;;7.92;100.00;101454.38;5304841;28;20067;-68
2023/04/29 03:47:07;;;;;;;68.60;44.37;;;;;;;8.03;100.00;101455.34;5337821;27;20035;-67
2023/04/29 03:49:38;;;;;;;68.35;43.85;;;;;;;8.03;100.00;101466.63;5304548;28;20107;-67
2023/04/29 03:52:11;;;;;;;67.10;42.67;;;;;;;8.12;100.00;101463.22;5304907;28;20387;-66
2023/04/29 03:54:42;;;;;;;64.85;43.00;;;;;;;8.12;100.00;101463.22;5304742;28;20036;-68
2023/04/29 03:57:14;;;;;;;66.97;45.07;;;;;;;8.13;100.00;101467.56;5304781;28;20498;-67
2023/04/29 03:59:49;;;;;;;67.30;43.70;;;;;;;8.14;100.00;101465.84;5304652;28;20071;-67
2023/04/29 04:02:20;;;;;;;67.93;44.45;;;;;;;8.13;100.00;101466.69;5303531;28;20054;-67
2023/04/29 04:04:53;;;;;;;60.83;40.50;;;;;;;8.08;100.00;101463.19;5303472;28;20066;-68
2023/04/29 04:07:25;;;;;;;66.70;42.38;;;;;;;8.10;100.00;101471.84;5304638;28;20032;-68
2023/04/29 04:09:56;;;;;;;58.93;41.43;;;;;;;8.05;100.00;101471.84;5303838;28;20035;-67
2023/04/29 04:12:27;;;;;;;65.10;39.90;;;;;;;8.12;100.00;101476.22;5304521;28;20394;-67
2023/04/29 04:14:59;;;;;;;56.87;39.23;;;;;;;8.04;100.00;101478.72;5304548;28;20062;-67
2023/04/29 04:17:30;;;;;;;64.07;40.27;;;;;;;8.04;100.00;101477.88;5304310;28;20032;-67
2023/04/29 04:20:02;;;;;;;57.50;36.43;;;;;;;8.04;100.00;101481.31;5304141;28;20032;-67
2023/04/29 04:22:33;;;;;;;53.83;37.63;;;;;;;8.03;100.00;101478.72;5304060;28;20035;-67
2023/04/29 04:25:06;;;;;;;57.00;36.57;;;;;;;8.14;100.00;101491.81;5304403;28;20336;-68
2023/04/29 04:27:37;;;;;;;54.40;36.90;;;;;;;8.10;100.00;101490.91;5304347;28;20067;-67
2023/04/29 04:30:08;;;;;;;54.33;37.17;;;;;;;8.10;100.00;101495.22;5304155;28;20063;-67
2023/04/29 04:32:40;;;;;;;51.73;37.43;;;;;;;8.12;100.00;101507.38;5304251;28;20035;-68
2023/04/29 04:35:11;;;;;;;56.37;35.63;;;;;;;8.20;100.00;101500.50;5302961;28;20028;-67
2023/04/29 04:37:43;;;;;;;50.53;35.93;;;;;;;8.12;100.00;101506.50;5304269;28;20029;-67
2023/04/29 04:40:14;;;;;;;49.63;35.53;;;;;;;8.13;100.00;101505.63;5303825;28;20032;-67
2023/04/29 04:42:46;;;;;;;51.00;34.07;;;;;;;8.12;100.00;101506.50;5303786;28;20028;-67
2023/04/29 04:45:17;;;;;;;46.57;34.67;;;;;;;8.18;100.00;101519.56;5338233;27;20032;-67
2023/04/29 04:47:49;;;;;;;59.33;34.03;;;;;;;8.19;100.00;101524.75;5308405;28;20538;-68
2023/04/29 04:50:20;;;;;;;49.57;34.13;;;;;;;8.11;100.00;101522.94;5308404;28;20028;-68
2023/04/29 04:52:54;;;;;;;53.73;36.00;;;;;;;8.07;100.00;101534.16;5308215;28;20119;-68
2023/04/29 04:55:25;;;;;;;51.83;34.40;;;;;;;8.04;100.00;101533.25;5311018;28;20053;-68
2023/04/29 04:57:57;;;;;;;51.53;33.80;;;;;;;8.02;100.00;101539.31;5329411;28;20031;-68
2023/04/29 05:00:28;;;;;;;45.63;33.00;;;;;;;7.99;100.00;101537.53;5329254;28;20049;-68
2023/04/29 05:03:00;;;;;;;47.43;33.63;;;;;;;8.02;100.00;101547.09;5328741;28;20031;-68
2023/04/29 05:05:32;;;;;;;42.03;31.67;;;;;;;7.99;100.00;101545.34;5327966;28;20099;-68
2023/04/29 05:08:03;;;;;;;43.00;31.08;;;;;;;8.01;100.00;101548.81;5328761;28;20036;-68
2023/04/29 05:10:36;;;;;;;45.60;33.10;;;;;;;8.03;100.00;101554.91;5329189;28;20031;-68
2023/04/29 05:13:07;;;;;;;50.20;30.98;;;;;;;8.04;100.00;101555.78;5328843;28;20056;-68
2023/04/29 05:15:38;;;;;;;44.43;32.13;;;;;;;8.03;100.00;101560.09;5362266;27;20063;-68
2023/04/29 05:18:11;;;;;;;39.50;30.13;;;;;;;8.05;100.00;101560.13;5329113;28;20055;-68
2023/04/29 05:20:42;;;;;;;40.38;30.58;;;;;;;7.99;100.00;101560.06;5328705;28;20035;-68
2023/04/29 05:23:13;;;;;;;42.47;31.10;;;;;;;8.00;100.00;101566.97;5328806;28;20035;-68
2023/04/29 05:25:45;;;;;;;46.07;30.07;;;;;;;8.02;100.00;101570.47;5328977;28;20124;-68
2023/04/29 05:28:16;;;;;;;40.07;29.30;;;;;;;8.03;100.00;101583.47;5327557;28;20198;-68
2023/04/29 05:30:51;;;;;;;40.03;31.37;;;;;;;8.02;100.00;101584.31;5327409;28;20027;-68
2023/04/29 05:33:22;;;;;;;44.40;31.27;;;;;;;7.99;100.00;101576.50;5328914;28;20042;-68
2023/04/29 05:35:53;;;;;;;45.33;31.13;;;;;;;8.04;100.00;101581.72;5328594;28;20035;-68
2023/04/29 05:38:27;;;;;;;52.27;32.97;;;;;;;7.99;100.00;101579.09;5328092;28;20053;-68
2023/04/29 05:40:59;;;;;;;45.30;31.58;;;;;;;8.06;100.00;101587.81;5328673;28;20041;-68
2023/04/29 05:43:30;;;;;;;45.43;31.80;;;;;;;8.04;100.00;101586.94;5328351;28;20370;-68
2023/04/29 05:46:01;;;;;;;46.10;31.27;;;;;;;8.08;100.00;101593.88;5328351;28;20038;-68
2023/04/29 05:48:33;;;;;;;40.90;28.73;;;;;;;8.10;100.00;101597.38;5327334;28;20036;-68
2023/04/29 05:51:05;;;;;;;40.40;29.67;;;;;;;8.22;100.00;101596.63;5327032;28;20034;-68
2023/04/29 05:53:37;;;;;;;36.33;28.20;;;;;;;8.22;100.00;101599.22;5328280;28;20035;-68
2023/04/29 05:56:08;;;;;;;42.65;30.52;;;;;;;8.27;100.00;101600.13;5328021;28;20031;-68
2023/04/29 05:58:40;;;;;;;36.73;29.20;;;;;;;8.33;100.00;101604.53;5327339;28;20147;-68
2023/04/29 06:01:11;;;;;;;39.20;28.90;;;;;;;8.35;100.00;101615.81;5327953;28;20032;-68
2023/04/29 06:03:43;;;;;;;34.60;26.63;;;;;;;8.37;100.00;101612.38;5327920;28;20023;-68
2023/04/29 06:06:15;;;;;;;37.63;28.40;;;;;;;8.45;100.00;101622.84;5326615;28;20032;-67
2023/04/29 06:08:46;;;;;;;38.60;28.77;;;;;;;8.42;100.00;101625.41;5327465;28;20031;-67
2023/04/29 06:11:17;;;;;;;32.87;27.93;;;;;;;8.48;100.00;101622.03;5326568;28;20050;-67
2023/04/29 06:13:49;;;;;;;35.03;27.50;;;;;;;8.48;100.00;101622.03;5327753;28;20403;-67
2023/04/29 06:16:20;;;;;;;35.03;26.33;;;;;;;8.53;100.00;101634.22;5326458;28;20063;-67
2023/04/29 06:18:52;;;;;;;37.03;26.60;;;;;;;8.52;100.00;101637.66;5327616;27;20425;-67
2023/04/29 06:21:23;;;;;;;33.03;26.60;;;;;;;8.51;100.00;101630.72;5292395;28;20490;-67
2023/04/29 06:23:55;;;;;;;35.80;26.90;;;;;;;8.51;100.00;101638.50;5326264;28;20122;-67
2023/04/29 06:26:26;;;;;;;38.17;27.67;;;;;;;8.51;100.00;101633.31;5326139;28;20031;-66
2023/04/29 06:28:57;;;;;;;31.47;25.53;;;;;;;8.51;100.00;101645.44;5321610;27;20036;-66
2023/04/29 06:31:29;;;;;;;37.60;27.90;;;;;;;8.53;100.00;101648.91;5328644;27;20028;-66
2023/04/29 06:34:00;;;;;;;30.83;26.10;;;;;;;8.48;100.00;101651.47;5326378;28;20035;-66
2023/04/29 06:36:32;;;;;;;31.17;25.47;;;;;;;8.52;100.00;101655.00;5325452;28;20031;-66
2023/04/29 06:39:03;;;;;;;35.87;26.30;;;;;;;8.52;100.00;101649.78;5325409;28;20069;-66
2023/04/29 06:41:35;;;;;;;36.50;25.57;;;;;;;8.52;100.00;101645.44;5325454;28;20061;-66
2023/04/29 06:44:07;;;;;;;30.88;26.83;;;;;;;8.57;100.00;101672.34;5324553;28;20027;-66
2023/04/29 06:46:38;;;;;;;31.70;26.47;;;;;;;8.61;100.00;101681.03;5325314;28;20488;-66
2023/04/29 06:49:10;;;;;;;39.47;27.27;;;;;;;8.66;100.00;101676.78;5324422;28;20118;-66
2023/04/29 06:51:41;;;;;;;36.03;24.17;;;;;;;8.71;100.00;101677.69;5325435;28;20052;-66
2023/04/29 06:54:13;;;;;;;30.93;25.70;;;;;;;8.70;100.00;101681.13;5325868;28;20054;-66
2023/04/29 06:56:44;;;;;;;35.10;26.13;;;;;;;8.76;100.00;101683.78;5326281;28;20031;-66
2023/04/29 06:59:16;;;;;;;35.23;25.17;;;;;;;8.88;100.00;101690.81;5323495;28;20027;-66
2023/04/29 07:01:47;;;;;;;36.23;25.23;;;;;;;8.97;100.00;101697.84;5325570;28;20039;-66
2023/04/29 07:04:19;;;;;;;30.97;25.30;;;;;;;9.20;100.00;101694.56;5323293;27;20039;-66
2023/04/29 07:06:50;;;;;;;29.03;24.37;;;;;;;9.28;100.00;101700.69;5326369;28;20129;-66
2023/04/29 07:09:22;;;;;;;30.53;23.03;;;;;;;9.32;100.00;101702.44;5306487;28;20042;-67
2023/04/29 07:11:54;;;;;;;32.20;24.17;;;;;;;9.23;100.00;101700.66;5325304;27;20044;-66
2023/04/29 07:14:25;;;;;;;27.53;22.37;;;;;;;9.21;100.00;101717.09;5325610;28;20078;-67
2023/04/29 07:16:56;;;;;;;29.87;22.67;;;;;;;9.19;100.00;101718.81;5324325;28;20103;-67
2023/04/29 07:19:29;;;;;;;30.63;22.27;;;;;;;9.34;100.00;101712.84;5323971;28;20054;-66
2023/04/29 07:22:01;;;;;;;;;;;;;;;9.52;100.00;101714.75;5325897;28;20034;-67
2023/04/29 07:24:32;;;;;;;24.92;21.40;;;;;;;9.35;100.00;101719.81;5323756;28;19920;-67
2023/04/29 07:27:03;;;;;;;26.83;21.70;;;;;;;9.31;100.00;101719.78;5324023;28;20384;-67
2023/04/29 07:29:35;;;;;;;26.30;21.17;;;;;;;9.44;100.00;101722.50;5325384;28;20452;-66
2023/04/29 07:32:06;;;;;;;27.43;21.83;;;;;;;9.40;100.00;101726.81;5324109;28;20070;-67
2023/04/29 07:34:38;;;;;;;28.55;22.27;;;;;;;9.41;100.00;101733.75;5325484;28;20035;-66
2023/04/29 07:37:09;;;;;;;26.60;21.63;;;;;;;9.38;100.00;101735.44;5323988;28;20037;-66
2023/04/29 07:39:41;;;;;;;25.23;21.73;;;;;;;9.37;100.00;101739.78;5325810;28;20035;-66
2023/04/29 07:42:12;;;;;;;25.33;21.50;;;;;;;9.39;100.00;101734.59;5324002;28;20032;-66
2023/04/29 07:44:47;;;;;;;27.07;22.60;;;;;;;9.46;100.00;101737.22;5325708;28;20148;-67
2023/04/29 07:47:18;;;;;;;26.75;20.40;;;;;;;9.49;100.00;101737.25;5325266;28;20036;-66
2023/04/29 07:49:50;;;;;;;29.00;21.23;;;;;;;9.66;100.00;101744.34;5326003;28;20039;-66
2023/04/29 07:52:22;;;;;;;25.20;22.27;;;;;;;9.77;100.00;101739.16;5323899;28;20031;-67
2023/04/29 07:54:55;;;;;;;23.80;20.63;;;;;;;9.85;100.00;101746.19;5325879;28;20106;-67
2023/04/29 07:57:27;;;;;;;27.75;20.35;;;;;;;9.89;100.00;101747.06;5325136;28;20036;-66
2023/04/29 07:59:58;;;;;;;24.90;19.03;;;;;;;10.07;100.00;101756.69;5325350;28;20080;-66
2023/04/29 08:02:30;;;;;;;23.10;20.43;;;;;;;10.30;100.00;101762.00;5324892;28;20055;-64
2023/04/29 08:05:02;;;;;;;25.50;19.90;;;;;;;10.56;100.00;101759.53;5325330;28;20043;-66
2023/04/29 08:07:33;;;;;;;23.73;17.70;;;;;;;10.82;100.00;101763.94;5325011;28;20020;-66
2023/04/29 08:10:05;;;;;;;23.77;18.50;;;;;;;10.90;100.00;101766.56;5324932;28;20035;-66
2023/04/29 08:12:36;;;;;;;22.80;18.63;;;;;;;10.94;98.91;101763.94;5319911;27;20074;-68
2023/04/29 08:15:08;;;;;;;24.53;18.60;;;;;;;11.04;100.00;101762.22;5326622;27;20040;-66
2023/04/29 08:17:40;;;;;;;23.43;17.90;;;;;;;11.15;100.00;101767.47;5324616;28;20111;-66
2023/04/29 08:20:12;;;;;;;23.20;18.50;;;;;;;11.03;98.45;101765.72;5322082;28;20074;-66
2023/04/29 08:22:43;;;;;;;18.70;16.63;;;;;;;11.12;99.39;101776.16;5323778;28;20024;-66
2023/04/29 08:25:14;;;;;;;21.57;15.90;;;;;;;11.01;95.65;101767.47;5324662;28;20023;-66
2023/04/29 08:27:46;;;;;;;22.97;17.03;;;;;;;11.17;96.57;101764.84;5323251;28;20438;-66
2023/04/29 08:30:17;;;;;;;18.70;15.17;;;;;;;11.32;95.61;101776.16;5324993;28;20028;-66
2023/04/29 08:32:49;;;;;;;18.70;15.10;;;;;;;11.54;92.31;101778.75;5323855;28;20471;-66
2023/04/29 08:35:21;;;;;;;17.70;14.70;;;;;;;11.61;92.06;101787.47;5323171;28;20027;-66
2023/04/29 08:37:53;;;;;;;21.47;15.50;;;;;;;11.75;91.11;101780.50;5324421;28;20066;-66
2023/04/29 08:40:25;;;;;;;16.17;14.47;;;;;;;11.77;90.78;101790.91;5324202;28;20114;-66
2023/04/29 08:42:58;;;;;;;18.60;14.57;;;;;;;11.52;90.14;101782.25;5321090;28;20770;-67
2023/04/29 08:45:31;;;;;;;19.65;14.30;;;;;;;11.76;90.56;101789.19;5322954;28;20065;-66
2023/04/29 08:48:03;;;;;;;19.10;15.25;;;;;;;12.21;88.97;101777.78;5323716;28;20035;-66
2023/04/29 08:50:39;;;;;;;17.85;15.25;;;;;;;12.47;87.95;101786.38;5322547;28;20470;-67
2023/04/29 08:53:12;;;;;;;18.92;14.77;;;;;;;12.86;85.36;101797.50;5323804;28;20027;-67
2023/04/29 08:55:45;;;;;;;17.33;13.75;;;;;;;12.66;83.77;101798.50;5324506;28;20036;-67
2023/04/29 08:58:16;;;;;;;;;;;;;;;12.79;83.25;101793.22;5323089;28;20032;-67
2023/04/29 09:00:48;;;;;;;19.10;14.68;;;;;;;12.38;85.27;101797.75;5324778;28;19931;-67
2023/04/29 09:03:43;;;;;;;15.33;13.70;;;;;;;12.47;87.41;101797.72;5323465;28;20027;-67
2023/04/29 09:06:15;;;;;;;15.93;13.88;;;;;;;12.58;82.70;101797.66;5323223;28;20261;-67
2023/04/29 09:08:47;;;;;;;19.63;14.00;;;;;;;12.84;84.38;101804.50;5323270;28;20107;-67
2023/04/29 09:11:19;;;;;;;15.98;12.70;;;;;;;12.62;82.05;101799.38;5324250;28;20119;-66
2023/04/29 09:13:50;;;;;;;16.25;12.18;;;;;;;12.47;83.81;101809.94;5321328;28;20607;-66
2023/04/29 09:16:21;;;;;;;14.57;12.67;;;;;;;12.48;81.82;101801.22;5324335;28;20035;-66
2023/04/29 09:18:54;;;;;;;17.87;13.70;;;;;;;12.47;81.79;101807.31;5322404;28;20504;-66
2023/04/29 09:21:27;;;;;;;17.27;13.35;;;;;;;12.50;82.01;101807.31;5322652;28;20028;-66
2023/04/29 09:24:00;;;;;;;15.55;12.45;;;;;;;12.68;85.04;101817.66;5323508;28;20352;-66
2023/04/29 09:26:40;;;;;;;16.30;13.05;;;;;;;12.66;81.54;101806.34;5324215;28;20042;-66
2023/04/29 09:29:12;;;;;;;14.32;11.70;;;;;;;13.46;83.21;101818.94;5322658;28;20031;-66
2023/04/29 09:31:45;;;;;;;14.82;11.43;;;;;;;13.99;78.38;101803.59;5324557;28;20035;-66
2023/04/29 09:34:16;;;;;;;16.38;11.25;;;;;;;15.36;73.49;101808.78;5327164;28;20034;-67
2023/04/29 09:36:49;;;;;;;13.60;11.67;;;;;;;16.23;67.23;101810.75;5326564;27;20474;-66
2023/04/29 09:39:22;;;;;;;14.85;10.00;;;;;;;16.62;64.45;101808.19;5326908;28;20036;-67
2023/04/29 09:41:53;;;;;;;;;;;;;;;17.66;60.67;101810.13;5328719;28;20097;-67
2023/04/29 09:44:27;;;;;;;13.47;9.93;;;;;;;17.65;63.46;101815.44;5325676;28;19911;-66
2023/04/29 09:47:07;;;;;;;14.18;9.38;;;;;;;18.68;55.68;101809.09;5323326;27;20273;-67
2023/04/29 09:49:40;;;;;;;10.85;8.15;;;;;;;17.68;56.01;101818.00;5323657;28;20042;-66
2023/04/29 09:52:15;;;;;;;12.75;8.68;;;;;;;16.83;58.53;101821.78;5326756;28;20027;-67
2023/04/29 09:54:46;;;;;;;11.77;9.00;;;;;;;16.13;62.11;101823.22;5325146;28;20149;-67
2023/04/29 09:57:18;;;;;;;10.03;8.50;;;;;;;15.97;61.65;101822.66;5327295;28;20107;-66
2023/04/29 09:59:49;;;;;;;15.77;9.83;;;;;;;15.91;62.67;101825.38;5327331;28;20466;-67
2023/04/29 10:02:22;;;;;;;11.47;9.17;;;;;;;16.01;61.89;101826.94;5325964;28;20036;-66
2023/04/29 10:04:56;;;;;;;9.30;7.88;;;;;;;16.39;61.23;101830.59;5327485;28;20026;-66
2023/04/29 10:07:28;;;;;;;10.48;7.88;;;;;;;16.30;59.60;101837.81;5326918;28;20042;-67
2023/04/29 10:10:04;;;;;;;11.18;9.15;;;;;;;16.63;57.79;101833.63;5324361;28;20027;-66
2023/04/29 10:12:37;;;;;;;10.30;7.50;;;;;;;16.04;58.95;101836.53;5326591;28;20032;-67
2023/04/29 10:15:28;;;;;;;8.90;8.00;;;;;;;16.02;61.91;101836.56;5327551;28;20045;-66
2023/04/29 10:18:14;;;;;;;11.77;8.95;;;;;;;15.52;65.27;101842.69;5324919;28;20031;-67
2023/04/29 10:20:47;;;;;;;10.77;7.38;;;;;;;15.35;61.51;101843.81;5327222;28;20027;-66
2023/04/29 10:23:20;;;;;;;8.88;6.93;;;;;;;15.48;61.22;101834.84;5322819;27;20078;-66
2023/04/29 10:25:52;;;;;;;9.80;7.68;;;;;;;15.64;61.21;101837.22;5304690;28;20055;-66
2023/04/29 10:28:25;;;;;;;9.77;8.63;;;;;;;15.38;62.85;101843.78;5303582;28;20382;-66
2023/04/29 10:30:58;;;;;;;11.00;8.27;;;;;;;15.28;64.76;101840.44;5304573;28;20032;-67
2023/04/29 10:33:32;;;;;;;9.85;8.43;;;;;;;15.11;65.06;101845.94;5305302;28;20036;-66
2023/04/29 10:36:04;;;;;;;12.90;8.70;;;;;;;14.99;66.93;101845.22;5338530;27;20028;-67
2023/04/29 10:38:46;;;;;;;11.23;7.95;;;;;;;15.15;64.66;101846.78;5316335;27;20036;-67
2023/04/29 10:41:23;;;;;;;10.10;7.60;;;;;;;15.06;59.60;101839.88;5323768;28;20031;-66
2023/04/29 10:43:57;;;;;;;9.82;7.47;;;;;;;15.16;58.55;101845.00;5325748;27;20476;-66
2023/04/29 10:46:28;;;;;;;9.40;7.00;;;;;;;15.71;59.68;101835.34;5324995;28;20032;-67
2023/04/29 10:49:02;;;;;;;11.40;8.23;;;;;;;15.44;59.38;101842.78;5326011;28;20032;-66
2023/04/29 10:51:40;;;;;;;12.70;8.35;;;;;;;15.63;61.79;101846.00;5326531;28;20081;-67
2023/04/29 10:54:13;;;;;;;9.82;7.70;;;;;;;16.15;61.29;101836.34;5324443;28;20087;-67
2023/04/29 10:56:50;;;;;;;9.70;6.93;;;;;;;16.28;59.73;101843.09;5326215;28;20036;-66
2023/04/29 10:59:42;;;;;;;10.10;8.57;;;;;;;16.43;58.30;101852.44;5304184;28;20467;-66
2023/04/29 11:02:14;;;;;;;10.55;8.00;;;;;;;15.91;58.45;101853.47;5303118;28;20489;-66
2023/04/29 11:05:08;;;;;;;10.45;7.78;;;;;;;15.79;60.50;101859.78;5304919;28;20364;-66
2023/04/29 11:07:40;;;;;;;9.38;7.53;;;;;;;16.01;58.81;101853.25;5303617;28;20111;-66
2023/04/29 11:10:12;;;;;;;10.47;7.20;;;;;;;15.83;57.19;101853.59;5335918;27;20547;-66
2023/04/29 11:12:43;;;;;;;12.23;7.37;;;;;;;15.67;57.86;101851.19;5303150;28;20421;-66
2023/04/29 11:15:17;;;;;;;9.53;7.40;;;;;;;15.73;58.44;101854.59;5305784;28;20415;-66
2023/04/29 11:17:48;;;;;;;12.95;8.40;;;;;;;15.59;59.51;101854.84;5304830;28;20145;-66
2023/04/29 11:20:21;;;;;;;11.73;9.17;;;;;;;15.54;62.68;101862.78;5304970;28;20115;-66
2023/04/29 11:22:54;;;;;;;10.30;7.60;;;;;;;14.90;61.71;101859.38;5337422;27;20054;-66
2023/04/29 11:25:25;;;;;;;9.93;7.65;;;;;;;14.83;64.47;101858.59;5304948;28;20119;-66
2023/04/29 11:27:58;;;;;;;11.77;8.43;;;;;;;14.68;64.54;101856.16;5303697;28;20107;-66
2023/04/29 11:30:30;;;;;;;11.55;8.25;;;;;;;14.89;63.94;101847.13;5304255;28;20024;-67
2023/04/29 11:33:02;;;;;;;11.85;8.82;;;;;;;14.83;64.41;101855.97;5304246;28;20111;-66
2023/04/29 11:35:33;;;;;;;10.70;8.10;;;;;;;14.58;63.52;101856.22;5304701;28;20111;-66
2023/04/29 11:38:05;;;;;;;11.20;7.67;;;;;;;14.43;63.96;101859.06;5303747;28;20039;-66